Time;durP1;ratioP1;P1;durP2;ratioP2;P2;SDS_P1;SDS_P2;PMS_P1;PMS_P2;Temp;Humidity;BMP_temperature;BMP_pressure;BME280_temperature;BME280_humidity;BME280_pressure;Samples;Min_cycle;Max_cycle;Signal;HPM_P1;HPM_P2
2022/06/10 00:01:08;;;;;;;8.85;1.98;;;;;;;16.51;68.13;100136.50;5028309;28;20049;-39
2022/06/10 00:03:35;;;;;;;8.95;1.65;;;;;;;16.49;68.41;100148.72;5029705;28;20451;-42
2022/06/10 00:06:05;;;;;;;8.93;1.33;;;;;;;16.49;68.53;100143.50;5029583;28;20061;-40
2022/06/10 00:08:36;;;;;;;7.95;1.15;;;;;;;16.49;68.89;100148.72;5026601;28;20122;-38
2022/06/10 00:11:04;;;;;;;9.70;2.05;;;;;;;16.53;68.32;100143.41;5023581;28;20053;-42
2022/06/10 00:13:34;;;;;;;9.13;1.77;;;;;;;16.55;68.86;100145.97;5027986;28;20574;-42
2022/06/10 00:16:02;;;;;;;12.68;1.88;;;;;;;16.54;68.70;100139.00;5021630;28;20053;-39
2022/06/10 00:18:31;;;;;;;5.93;1.52;;;;;;;16.56;68.34;100139.84;5024348;28;20049;-44
2022/06/10 00:21:00;;;;;;;8.48;1.95;;;;;;;16.55;68.23;100145.97;5027327;28;20620;-39
2022/06/10 00:23:27;;;;;;;6.90;1.35;;;;;;;16.55;67.93;100149.44;5027238;28;20091;-41
2022/06/10 00:25:54;;;;;;;9.70;1.67;;;;;;;16.57;68.20;100146.78;5023924;28;20049;-42
2022/06/10 00:28:40;;;;;;;10.20;1.60;;;;;;;16.56;68.85;100150.28;5024589;28;20072;-40
2022/06/10 00:31:07;;;;;;;10.88;2.08;;;;;;;16.57;68.29;100149.38;5024331;28;20046;-44
2022/06/10 00:33:34;;;;;;;7.00;1.67;;;;;;;16.59;67.98;100158.06;5023515;28;20053;-43
2022/06/10 00:36:02;;;;;;;13.00;1.98;;;;;;;16.62;68.93;100154.50;5022460;28;20080;-41
2022/06/10 00:38:29;;;;;;;15.00;2.45;;;;;;;16.61;68.16;100153.63;5023653;28;20049;-42
2022/06/10 00:40:56;;;;;;;8.38;2.15;;;;;;;16.61;68.33;100148.41;5025049;28;20099;-39
2022/06/10 00:43:27;;;;;;;6.45;1.77;;;;;;;16.63;68.42;100151.84;5022726;28;20640;-45
2022/06/10 00:51:16;;;;;;;13.13;1.58;;;;;;;16.64;68.58;100148.34;5063973;27;20922;-44
2022/06/10 00:53:44;;;;;;;7.68;1.63;;;;;;;16.66;68.15;100146.56;5009056;28;20180;-41
2022/06/10 00:56:16;;;;;;;9.00;1.70;;;;;;;16.67;68.10;100145.66;4988381;28;20529;-38
2022/06/10 00:58:52;;;;;;;8.00;2.38;;;;;;;16.66;68.04;100140.44;5002754;28;20054;-38
2022/06/10 01:01:22;;;;;;;6.40;1.50;;;;;;;16.66;68.36;100151.78;4983445;28;20051;-40
2022/06/10 01:03:50;;;;;;;12.05;1.92;;;;;;;16.66;68.13;100151.78;5006144;28;20129;-41
2022/06/10 01:06:17;;;;;;;7.40;2.05;;;;;;;16.62;68.24;100144.88;4991237;28;20054;-41
2022/06/10 01:08:46;;;;;;;10.50;1.73;;;;;;;16.62;68.31;100152.72;4993252;28;20097;-43
2022/06/10 01:11:52;;;;;;;8.43;2.38;;;;;;;16.55;67.73;100152.03;4988687;28;20085;-40
2022/06/10 01:22:48;;;;;;;16.17;4.00;;;;;;;16.87;67.67;100153.84;5040512;27;20417;-40
2022/06/10 01:28:17;;;;;;;10.57;2.03;;;;;;;16.68;68.09;100155.19;5115883;27;20377;-44
2022/06/10 01:30:54;;;;;;;11.23;2.45;;;;;;;16.65;67.93;100159.66;5090548;28;21204;-42
2022/06/10 01:36:10;;;;;;;13.25;2.33;;;;;;;16.62;68.36;100154.50;5037853;28;20412;-44
2022/06/10 01:46:32;;;;;;;15.65;2.90;;;;;;;16.47;67.61;100156.63;5021579;28;20871;-42
2022/06/10 01:49:10;;;;;;;16.02;2.58;;;;;;;16.42;67.83;100153.28;5001014;28;20049;-44
2022/06/10 01:54:23;;;;;;;8.48;2.58;;;;;;;16.32;67.75;100144.81;5040840;28;20417;-39
2022/06/10 01:56:55;;;;;;;12.18;2.10;;;;;;;16.26;67.09;100144.94;5002007;28;20049;-40
2022/06/10 01:59:36;;;;;;;14.50;2.75;;;;;;;16.14;67.50;100143.50;4998481;28;20053;-42
2022/06/10 02:02:08;;;;;;;12.80;2.35;;;;;;;16.12;68.07;100146.16;4997332;28;20120;-43
2022/06/10 02:04:42;;;;;;;10.25;1.67;;;;;;;16.06;67.61;100141.94;4997877;28;20465;-42
2022/06/10 02:07:16;;;;;;;16.30;2.38;;;;;;;16.00;67.67;100149.91;4999162;28;20049;-42
2022/06/10 02:09:50;;;;;;;11.50;2.78;;;;;;;15.98;67.55;100148.22;5000178;28;20077;-42
2022/06/10 02:12:27;;;;;;;11.73;2.35;;;;;;;15.91;67.65;100155.34;4997816;28;20054;-41
2022/06/10 02:15:01;;;;;;;17.58;2.75;;;;;;;15.86;67.93;100150.19;4999344;28;20735;-43
2022/06/10 02:17:36;;;;;;;17.35;2.72;;;;;;;15.82;67.71;100151.16;5000147;28;20082;-41
2022/06/10 02:20:06;;;;;;;18.77;2.50;;;;;;;15.78;67.98;100158.19;4995712;28;20100;-42
2022/06/10 02:22:41;;;;;;;14.73;3.17;;;;;;;15.75;67.99;100160.03;4999756;28;20049;-39
2022/06/10 02:25:17;;;;;;;12.27;2.70;;;;;;;15.71;68.16;100161.00;4997514;28;20105;-42
2022/06/10 02:27:52;;;;;;;14.25;2.10;;;;;;;15.68;68.36;100169.75;5000945;28;20050;-43
2022/06/10 02:35:42;;;;;;;13.85;2.00;;;;;;;15.57;68.37;100172.59;5022345;27;20411;-42
2022/06/10 02:38:37;;;;;;;14.90;2.05;;;;;;;15.45;67.95;100178.94;5019544;28;20053;-40
2022/06/10 03:21:20;;;;;;;14.32;2.72;;;;;;;14.93;68.41;100194.72;5072629;27;20390;-43
2022/06/10 03:29:18;;;;;;;15.80;2.40;;;;;;;14.97;68.93;100200.75;5027337;27;20414;-45
2022/06/10 03:31:51;;;;;;;15.52;2.38;;;;;;;14.89;69.32;100204.38;5021491;28;20042;-40
2022/06/10 03:39:39;;;;;;;18.23;3.38;;;;;;;14.79;69.33;100202.78;5048707;27;20905;-40
2022/06/10 03:42:18;;;;;;;14.93;3.35;;;;;;;14.77;69.13;100204.59;5002126;28;20100;-40
2022/06/10 03:44:48;;;;;;;22.25;3.50;;;;;;;14.72;68.96;100202.03;5001862;28;20058;-42
2022/06/10 03:47:19;;;;;;;19.67;3.63;;;;;;;14.70;69.26;100208.16;5002780;28;20046;-42
2022/06/10 03:49:55;;;;;;;15.13;3.83;;;;;;;14.64;69.25;100210.00;4996698;28;20077;-45
2022/06/10 03:52:25;;;;;;;18.45;2.78;;;;;;;14.64;69.14;100210.00;5001250;28;20057;-42
2022/06/10 03:54:51;;;;;;;13.55;2.60;;;;;;;14.61;69.52;100210.03;5003010;28;20050;-45
2022/06/10 03:57:18;;;;;;;16.10;3.28;;;;;;;14.58;68.99;100199.66;5000787;28;20041;-43
2022/06/10 03:59:46;;;;;;;13.45;3.42;;;;;;;14.56;69.29;100211.84;5004353;28;20046;-42
2022/06/10 04:02:13;;;;;;;16.27;4.18;;;;;;;14.53;69.36;100201.50;5004674;28;20089;-42
2022/06/10 04:04:42;;;;;;;15.07;3.55;;;;;;;14.52;69.68;100204.97;5002524;28;20050;-39
2022/06/10 04:07:11;;;;;;;21.48;3.72;;;;;;;14.49;69.20;100199.81;5000809;28;20046;-46
2022/06/10 04:09:37;;;;;;;11.57;3.00;;;;;;;14.44;69.66;100196.41;5003369;28;20481;-43
2022/06/10 04:12:04;;;;;;;12.15;2.90;;;;;;;14.44;69.20;100212.03;5002897;28;20713;-39
2022/06/10 04:14:31;;;;;;;12.68;3.53;;;;;;;14.41;69.33;100207.75;5003038;28;20046;-41
2022/06/10 04:16:58;;;;;;;19.05;3.92;;;;;;;14.40;69.92;100206.88;5002017;28;20046;-39
2022/06/10 04:19:25;;;;;;;19.20;3.47;;;;;;;14.40;69.96;100214.69;5000656;28;20045;-41
2022/06/10 04:21:51;;;;;;;14.65;3.47;;;;;;;14.36;69.51;100213.03;5002095;28;20050;-44
2022/06/10 04:24:18;;;;;;;17.35;3.08;;;;;;;14.37;69.74;100217.38;5000841;28;20108;-43
2022/06/10 04:26:46;;;;;;;17.48;3.65;;;;;;;14.39;69.73;100225.16;4998478;28;20047;-41
2022/06/10 04:29:13;;;;;;;15.55;3.75;;;;;;;14.38;70.38;100232.13;5000416;28;20072;-42
2022/06/10 04:31:40;;;;;;;21.38;3.70;;;;;;;14.38;70.44;100229.50;5001007;28;20065;-39
2022/06/10 04:34:08;;;;;;;18.00;4.13;;;;;;;14.39;70.43;100225.16;5000556;28;20058;-45
2022/06/10 04:36:35;;;;;;;19.77;4.22;;;;;;;14.40;69.46;100237.31;4998216;28;20054;-43
2022/06/10 04:39:02;;;;;;;13.68;3.80;;;;;;;14.40;70.47;100242.50;4999543;28;20050;-43
2022/06/10 04:41:29;;;;;;;17.33;3.25;;;;;;;14.42;70.44;100240.72;4999694;28;20061;-39
2022/06/10 04:43:56;;;;;;;13.30;3.30;;;;;;;14.44;70.54;100251.13;4998409;28;20108;-41
2022/06/10 04:46:27;;;;;;;14.85;2.95;;;;;;;14.49;70.41;100257.16;5001809;28;20116;-42
2022/06/10 04:48:54;;;;;;;12.18;3.50;;;;;;;14.53;70.25;100253.63;4995773;28;20062;-40
2022/06/10 04:51:22;;;;;;;16.48;3.08;;;;;;;14.56;70.10;100253.53;4987416;28;21262;-45
2022/06/10 04:53:48;;;;;;;11.32;2.38;;;;;;;14.63;69.58;100249.94;4987249;28;20442;-41
2022/06/10 04:56:15;;;;;;;12.40;3.53;;;;;;;14.71;70.20;100256.78;4986745;28;20133;-39
2022/06/10 04:58:42;;;;;;;19.80;4.15;;;;;;;14.77;70.43;100251.53;4987669;28;20042;-42
2022/06/10 05:01:08;;;;;;;15.80;3.58;;;;;;;14.85;70.56;100252.25;4984962;28;20104;-41
2022/06/10 05:03:35;;;;;;;12.65;3.83;;;;;;;14.92;70.30;100254.75;4987135;28;20049;-43
2022/06/10 05:06:03;;;;;;;14.77;4.07;;;;;;;15.02;70.30;100259.78;4984333;28;20054;-40
2022/06/10 05:08:30;;;;;;;15.57;3.38;;;;;;;15.12;70.31;100250.03;4987077;28;20054;-40
2022/06/10 05:10:56;;;;;;;16.73;3.42;;;;;;;15.17;69.81;100249.97;4990227;28;20108;-38
2022/06/10 05:13:23;;;;;;;17.00;4.55;;;;;;;15.23;69.45;100248.97;4985185;28;20046;-46
2022/06/10 05:15:50;;;;;;;20.35;5.18;;;;;;;15.28;70.13;100247.13;4988825;28;20054;-42
2022/06/10 05:18:21;;;;;;;16.27;3.42;;;;;;;15.35;69.63;100248.75;4985623;28;20124;-43
2022/06/10 05:20:48;;;;;;;17.58;4.00;;;;;;;15.39;70.03;100250.41;4985573;28;20046;-42
2022/06/10 05:23:17;;;;;;;17.13;3.75;;;;;;;15.51;69.93;100253.66;4985735;28;20088;-42
2022/06/10 05:25:45;;;;;;;17.17;4.05;;;;;;;15.63;70.00;100256.00;4985982;28;20112;-42
2022/06/10 05:28:13;;;;;;;13.73;3.75;;;;;;;15.74;69.80;100247.09;4988206;28;20042;-39
2022/06/10 05:30:41;;;;;;;12.68;3.58;;;;;;;15.89;69.47;100246.78;4984021;28;20046;-43
2022/06/10 05:33:10;;;;;;;14.65;3.50;;;;;;;16.01;69.73;100239.59;4987517;28;20046;-43
2022/06/10 05:35:37;;;;;;;12.63;4.13;;;;;;;16.12;69.40;100242.84;4982079;28;20082;-42
2022/06/10 05:38:05;;;;;;;15.70;3.38;;;;;;;16.24;69.15;100243.44;4989218;28;20054;-41
2022/06/10 05:40:33;;;;;;;15.02;4.53;;;;;;;16.33;69.21;100248.44;4983779;28;20142;-41
2022/06/10 05:43:00;;;;;;;15.02;3.53;;;;;;;16.45;68.95;100253.38;4987076;28;20376;-42
2022/06/10 05:45:27;;;;;;;15.13;4.32;;;;;;;16.60;68.65;100250.41;4986668;28;20050;-45
2022/06/10 05:47:58;;;;;;;13.75;2.78;;;;;;;16.73;68.65;100250.97;4984612;28;20454;-43
2022/06/10 05:50:29;;;;;;;19.45;3.80;;;;;;;16.86;68.19;100251.53;4983995;28;20100;-44
2022/06/10 05:53:15;;;;;;;;;;;;;;;16.87;67.92;100246.25;4987904;28;20125;-45
2022/06/10 05:55:42;;;;;;;15.20;3.92;;;;;;;17.06;67.44;100254.50;4987855;28;20026;-46
2022/06/10 05:58:09;;;;;;;12.75;4.10;;;;;;;17.20;68.02;100263.75;4985445;28;20051;-40
2022/06/10 06:00:36;;;;;;;16.80;4.13;;;;;;;17.35;67.00;100259.84;4982786;28;20050;-41
2022/06/10 06:03:04;;;;;;;14.63;3.55;;;;;;;17.50;67.69;100250.72;4982774;28;20461;-42
2022/06/10 06:05:32;;;;;;;14.45;3.63;;;;;;;17.64;67.37;100250.34;4981350;28;20046;-43
2022/06/10 06:07:59;;;;;;;11.73;4.05;;;;;;;17.79;66.77;100254.25;4985679;28;20505;-40
2022/06/10 06:10:28;;;;;;;13.63;3.22;;;;;;;17.96;66.31;100256.38;4987411;28;20049;-41
2022/06/10 06:12:55;;;;;;;15.77;3.65;;;;;;;18.13;66.17;100260.25;4983031;28;20058;-45
2022/06/10 06:15:23;;;;;;;14.25;3.78;;;;;;;18.27;66.00;100258.97;4986001;28;20057;-42
2022/06/10 06:18:07;;;;;;;13.40;3.78;;;;;;;18.41;65.63;100262.00;4986804;28;20048;-43
2022/06/10 06:20:33;;;;;;;14.57;3.83;;;;;;;18.55;65.09;100260.72;4982008;28;20552;-45
2022/06/10 06:23:00;;;;;;;17.90;3.83;;;;;;;18.69;64.89;100276.00;4989147;28;20050;-42
2022/06/10 06:25:29;;;;;;;15.82;3.53;;;;;;;18.80;64.76;100273.88;4987041;28;20121;-43
2022/06/10 06:27:56;;;;;;;11.98;3.58;;;;;;;18.92;64.71;100272.63;4986772;28;20046;-41
2022/06/10 06:35:38;;;;;;;13.25;1.65;;;;;;;19.44;63.88;100282.22;4975981;28;20765;-44
2022/06/10 06:38:06;;;;;;;15.60;2.53;;;;;;;19.56;62.72;100282.69;4991170;28;20050;-45
2022/06/10 06:40:33;;;;;;;10.88;2.75;;;;;;;19.73;62.71;100293.41;4995607;28;20046;-39
2022/06/10 06:43:00;;;;;;;13.73;2.65;;;;;;;19.95;62.93;100284.72;5000236;28;20441;-42
2022/06/10 06:45:28;;;;;;;8.75;1.88;;;;;;;20.14;62.07;100289.31;4997202;28;20053;-40
2022/06/10 06:48:03;;;;;;;13.85;1.83;;;;;;;20.34;61.70;100300.81;4997070;28;20157;-41
2022/06/10 06:50:31;;;;;;;;;;;;;;;20.47;61.82;100296.75;4996951;28;20053;-46
2022/06/10 06:52:57;;;;;;;8.60;2.55;;;;;;;20.75;61.07;100295.66;4995734;28;19925;-41
2022/06/10 06:55:32;;;;;;;11.75;2.30;;;;;;;20.97;60.61;100307.94;4996908;28;20046;-39
2022/06/10 06:57:59;;;;;;;11.13;2.03;;;;;;;21.16;59.68;100309.78;4999046;28;20054;-41
2022/06/10 07:00:27;;;;;;;10.63;2.35;;;;;;;21.24;58.66;100312.94;4996616;28;20058;-42
2022/06/10 07:02:54;;;;;;;11.45;2.15;;;;;;;21.31;58.86;100314.38;4997718;28;20124;-49
2022/06/10 07:05:21;;;;;;;13.30;1.85;;;;;;;21.46;58.17;100319.91;4996064;28;20541;-43
2022/06/10 07:07:48;;;;;;;10.25;1.90;;;;;;;21.54;57.84;100315.16;4998398;28;20050;-43
2022/06/10 07:10:16;;;;;;;12.30;3.08;;;;;;;21.54;57.28;100309.88;4997254;28;20050;-40
2022/06/10 07:12:43;;;;;;;15.18;2.40;;;;;;;21.46;56.62;100312.00;4996307;28;20046;-43
2022/06/10 07:15:10;;;;;;;14.70;2.33;;;;;;;21.46;57.20;100309.38;4999753;28;20489;-43
2022/06/10 07:17:38;;;;;;;11.35;2.80;;;;;;;21.52;56.86;100317.00;4994991;28;20132;-43
2022/06/10 07:20:07;;;;;;;15.00;1.80;;;;;;;21.71;56.71;100310.91;4995514;28;20049;-42
2022/06/10 07:22:34;;;;;;;11.65;1.70;;;;;;;21.92;56.70;100319.63;4996107;28;20513;-44
2022/06/10 07:25:00;;;;;;;11.07;2.55;;;;;;;21.92;55.66;100318.81;4995467;28;20418;-49
2022/06/10 07:27:27;;;;;;;14.35;2.80;;;;;;;21.88;55.43;100327.78;4995602;28;20058;-42
2022/06/10 07:30:02;;;;;;;12.27;2.97;;;;;;;21.88;55.38;100318.06;4996458;28;20054;-41
2022/06/10 07:32:29;;;;;;;13.23;2.13;;;;;;;21.97;55.87;100316.78;4995126;28;20423;-42
2022/06/10 07:34:56;;;;;;;14.75;2.70;;;;;;;22.07;54.51;100318.09;4998437;28;20038;-40
2022/06/10 07:37:23;;;;;;;9.70;2.38;;;;;;;22.14;55.03;100312.50;4979186;28;20128;-42
2022/06/10 07:39:50;;;;;;;13.05;2.13;;;;;;;22.17;54.41;100312.38;4997145;28;20142;-44
2022/06/10 07:42:17;;;;;;;11.70;1.60;;;;;;;22.36;55.72;100322.06;4999339;28;20142;-43
2022/06/10 07:44:44;;;;;;;12.55;2.03;;;;;;;22.71;55.62;100322.16;5000365;28;20101;-44
2022/06/10 07:47:14;;;;;;;7.75;1.88;;;;;;;23.13;54.28;100319.22;4982854;28;20050;-47
2022/06/10 07:49:41;;;;;;;12.65;1.90;;;;;;;23.28;52.92;100320.19;4985059;28;20133;-43
2022/06/10 07:52:09;;;;;;;16.17;2.15;;;;;;;23.27;52.70;100321.13;4982627;28;20081;-47
2022/06/10 07:54:36;;;;;;;12.93;2.83;;;;;;;23.33;52.32;100329.59;4984511;28;20054;-44
2022/06/10 07:57:05;;;;;;;12.73;1.80;;;;;;;23.28;51.07;100321.06;4979483;28;20068;-41
2022/06/10 07:59:33;;;;;;;;;;;;;;;22.99;51.94;100323.41;4983782;28;20051;-46
2022/06/10 08:02:00;;;;;;;8.02;1.23;;;;;;;23.15;52.53;100325.25;4984626;28;19926;-41
2022/06/10 08:04:27;;;;;;;9.93;1.73;;;;;;;23.28;52.12;100326.34;4981939;28;20109;-43
2022/06/10 08:06:54;;;;;;;9.90;1.65;;;;;;;23.33;51.52;100324.31;4981212;28;20050;-41
2022/06/10 08:09:21;;;;;;;11.15;2.05;;;;;;;23.27;51.55;100319.34;4979697;28;20194;-45
2022/06/10 08:11:49;;;;;;;12.23;1.58;;;;;;;23.10;50.97;100317.59;4987380;28;20048;-48
2022/06/10 08:14:17;;;;;;;10.50;2.38;;;;;;;23.15;52.22;100319.97;4984997;28;20099;-44
2022/06/10 08:16:44;;;;;;;14.30;1.80;;;;;;;23.45;52.28;100322.00;4981583;28;20065;-43
2022/06/10 08:19:11;;;;;;;8.57;1.70;;;;;;;23.74;51.51;100319.56;4986479;28;20050;-44
2022/06/10 08:24:24;;;;;;;7.35;1.60;;;;;;;24.25;51.28;100316.00;4981572;28;20050;-45
2022/06/10 08:26:51;;;;;;;9.27;1.55;;;;;;;24.56;50.24;100321.31;4976563;28;20701;-46
2022/06/10 08:29:19;;;;;;;11.00;1.58;;;;;;;24.81;49.96;100318.09;4982009;28;20575;-41
2022/06/10 08:31:46;;;;;;;8.77;2.35;;;;;;;24.98;48.77;100321.56;4981367;28;20046;-43
2022/06/10 08:34:13;;;;;;;8.02;1.83;;;;;;;25.15;49.17;100326.72;4983973;28;20410;-46
2022/06/10 08:36:41;;;;;;;11.65;2.53;;;;;;;25.10;47.58;100323.50;4982074;28;20077;-42
2022/06/10 08:39:09;;;;;;;8.27;1.83;;;;;;;25.04;47.57;100318.56;4984284;28;20057;-40
2022/06/10 08:58:39;;;;;;;7.50;1.50;;;;;;;26.37;45.72;100323.78;5042433;28;20400;-42
2022/06/10 09:01:12;;;;;;;9.43;1.38;;;;;;;26.53;45.11;100335.09;5007279;28;20438;-42
2022/06/10 09:06:29;;;;;;;6.78;2.72;;;;;;;26.63;43.85;100327.34;5075440;27;20413;-39
2022/06/10 09:09:03;;;;;;;9.60;3.85;;;;;;;26.53;44.14;100331.56;5024118;28;20045;-48
2022/06/10 09:11:46;;;;;;;8.43;2.72;;;;;;;26.55;43.61;100334.97;5038222;28;20513;-45
2022/06/10 09:14:23;;;;;;;13.80;3.15;;;;;;;26.49;43.37;100333.59;5034054;28;20084;-45
2022/06/10 09:25:05;;;;;;;8.88;2.78;;;;;;;26.67;42.92;100336.81;5064967;27;20401;-41
2022/06/10 09:27:37;;;;;;;7.32;1.95;;;;;;;26.57;42.42;100338.38;5037286;28;20049;-41
2022/06/10 09:30:07;;;;;;;10.50;1.65;;;;;;;26.33;42.21;100339.03;5037130;28;20041;-40
2022/06/10 09:40:51;;;;;;;7.03;2.53;;;;;;;25.95;42.71;100334.34;5034931;27;20414;-45
2022/06/10 09:51:21;;;;;;;10.60;1.70;;;;;;;26.40;41.92;100335.03;5047563;28;20411;-43
2022/06/10 09:56:59;;;;;;;25.52;2.90;;;;;;;26.79;41.96;100344.94;5081791;27;20891;-44
2022/06/10 10:13:48;;;;;;;7.68;2.35;;;;;;;26.05;41.83;100346.09;5023804;28;20408;-47
2022/06/10 10:24:22;;;;;;;11.90;3.28;;;;;;;26.54;40.79;100335.91;5056434;27;20394;-45
2022/06/10 10:26:51;;;;;;;12.45;2.88;;;;;;;26.49;40.81;100327.41;5020500;28;20619;-43
2022/06/10 10:34:45;;;;;;;11.70;2.58;;;;;;;26.39;39.17;100337.78;5038619;27;20418;-44
2022/06/10 10:37:31;;;;;;;10.20;3.47;;;;;;;26.00;40.47;100326.97;5002307;28;20064;-43
2022/06/10 10:42:43;;;;;;;11.43;2.25;;;;;;;26.10;40.74;100330.72;5101689;27;20391;-43
2022/06/10 10:45:31;;;;;;;8.98;2.25;;;;;;;25.95;40.26;100329.03;5053490;28;20592;-42
2022/06/10 10:48:04;;;;;;;9.50;2.20;;;;;;;25.84;40.63;100330.59;5076961;28;20401;-41
2022/06/10 10:50:34;;;;;;;9.90;2.00;;;;;;;25.85;41.58;100319.00;5078595;28;20050;-42
2022/06/10 10:53:22;;;;;;;11.85;2.53;;;;;;;25.85;40.93;100326.97;5096752;28;20042;-45
2022/06/10 10:55:55;;;;;;;10.52;2.10;;;;;;;25.87;41.14;100332.19;5093314;28;20059;-43
2022/06/10 10:58:27;;;;;;;8.35;2.38;;;;;;;25.92;41.83;100330.94;5090701;28;20052;-45
2022/06/10 11:00:58;;;;;;;10.85;2.78;;;;;;;25.96;41.08;100325.44;5082681;28;20040;-44
2022/06/10 11:03:30;;;;;;;11.60;2.22;;;;;;;26.09;41.81;100330.81;5085965;28;20097;-42
2022/06/10 11:06:00;;;;;;;9.00;2.70;;;;;;;26.29;41.93;100326.91;5088519;28;20044;-42
2022/06/10 11:08:33;;;;;;;10.63;2.38;;;;;;;26.41;41.67;100326.09;5094978;28;20045;-44
2022/06/10 11:11:22;;;;;;;10.82;2.28;;;;;;;26.45;41.11;100326.78;5089690;28;20043;-41
2022/06/10 11:13:58;;;;;;;10.38;2.55;;;;;;;26.38;41.32;100328.94;5088040;28;20044;-43
2022/06/10 11:24:30;;;;;;;6.50;3.20;;;;;;;26.97;40.40;100331.38;5040758;28;20388;-42
2022/06/10 11:26:59;;;;;;;9.65;3.03;;;;;;;26.93;40.44;100326.25;5019708;28;20188;-42
2022/06/10 11:29:28;;;;;;;7.97;2.58;;;;;;;26.91;39.82;100317.53;5017157;28;20063;-42
2022/06/10 11:32:05;;;;;;;6.65;3.03;;;;;;;26.82;39.80;100320.81;5019784;28;20073;-45
2022/06/10 11:34:39;;;;;;;8.15;2.15;;;;;;;26.70;39.50;100319.81;5025498;28;20674;-47
2022/06/10 11:37:29;;;;;;;8.70;3.30;;;;;;;26.42;38.58;100321.66;5019738;28;20054;-46
2022/06/10 11:40:11;;;;;;;11.27;3.72;;;;;;;26.30;39.46;100320.63;5008676;28;20125;-43
2022/06/10 11:42:46;;;;;;;8.27;2.92;;;;;;;26.24;39.52;100329.81;5019991;28;20132;-41
2022/06/10 11:45:26;;;;;;;13.52;3.42;;;;;;;26.16;39.60;100322.38;5020190;28;20057;-44
2022/06/10 11:48:01;;;;;;;9.15;3.15;;;;;;;26.23;40.69;100324.59;5025474;28;20143;-40
2022/06/10 11:50:42;;;;;;;;;;;;;;;26.11;41.08;100326.28;5020768;28;20513;-42
2022/06/10 11:59:42;;;;;;;12.10;3.20;;;;;;;26.71;40.48;100331.31;5064552;27;20409;-45
2022/06/10 12:01:36;;;;;;;7.68;2.03;;;;;;;26.38;38.62;100328.13;5039671;28;22170;-41
2022/06/10 12:04:13;;;;;;;10.90;2.25;;;;;;;26.23;39.30;100321.94;5065788;28;20046;-44
2022/06/10 12:06:53;;;;;;;12.23;1.55;;;;;;;26.13;39.67;100317.25;5027207;28;20057;-47
2022/06/10 12:09:42;;;;;;;9.57;1.75;;;;;;;26.15;39.91;100310.06;5022404;28;20065;-45
2022/06/10 12:15:11;;;;;;;8.80;2.20;;;;;;;26.46;39.58;100306.34;5027241;27;20786;-39
2022/06/10 12:17:42;;;;;;;9.82;2.05;;;;;;;26.55;40.36;100301.28;5022143;28;20521;-43
2022/06/10 12:20:23;;;;;;;5.93;0.93;;;;;;;26.60;38.99;100293.03;5036744;28;20049;-41
2022/06/10 12:22:51;;;;;;;4.13;1.25;;;;;;;26.62;39.17;100293.78;5043947;28;20118;-46
2022/06/10 12:25:22;;;;;;;8.45;1.23;;;;;;;26.66;38.79;100289.97;5042490;28;20516;-43
2022/06/10 12:27:58;;;;;;;6.72;1.05;;;;;;;26.66;39.11;100295.28;5038597;28;20041;-41
2022/06/10 12:30:35;;;;;;;6.75;1.35;;;;;;;26.74;39.37;100288.59;5043414;28;20050;-39
2022/06/10 12:33:15;;;;;;;6.15;1.25;;;;;;;26.75;38.47;100283.16;5035308;28;20052;-43
2022/06/10 12:35:44;;;;;;;4.72;0.88;;;;;;;26.81;38.95;100290.72;5038967;28;20049;-41
2022/06/10 12:38:17;;;;;;;9.02;1.63;;;;;;;26.80;38.31;100286.38;5037908;28;20045;-45
2022/06/10 12:40:50;;;;;;;12.65;1.30;;;;;;;26.77;38.33;100285.72;5041657;28;20052;-41
2022/06/10 12:43:26;;;;;;;7.45;0.90;;;;;;;26.78;38.15;100284.78;5037506;28;20071;-40
2022/06/10 12:45:59;;;;;;;8.00;1.40;;;;;;;26.84;37.96;100284.34;5042348;28;20052;-41
2022/06/10 12:48:32;;;;;;;6.53;1.40;;;;;;;26.79;37.88;100291.78;5039889;28;20049;-42
2022/06/10 12:53:49;;;;;;;4.07;1.00;;;;;;;26.63;37.78;100284.84;5003929;27;20418;-40
2022/06/10 13:01:45;;;;;;;5.75;0.80;;;;;;;26.74;37.82;100293.91;5059385;27;20396;-41
2022/06/10 13:07:00;;;;;;;5.57;1.65;;;;;;;26.82;36.66;100280.97;5070073;27;20773;-40
2022/06/10 13:15:11;;;;;;;2.95;0.65;;;;;;;26.69;36.15;100273.81;5061146;27;20401;-42
2022/06/10 13:17:53;;;;;;;4.38;0.73;;;;;;;26.62;36.13;100271.69;5059473;28;20086;-46
2022/06/10 13:20:21;;;;;;;6.00;1.10;;;;;;;26.62;36.48;100279.66;5042265;28;20065;-42
2022/06/10 13:26:12;;;;;;;5.38;2.10;;;;;;;26.40;35.50;100266.00;5031323;27;20394;-41
2022/06/10 13:28:41;;;;;;;5.82;2.05;;;;;;;26.36;35.85;100268.94;5007279;28;20045;-44
2022/06/10 13:36:35;;;;;;;3.72;0.77;;;;;;;26.12;35.67;100257.16;5095339;27;21389;-45
2022/06/10 13:39:04;;;;;;;6.25;1.05;;;;;;;26.03;35.40;100265.72;5039955;28;20081;-40
2022/06/10 13:41:52;;;;;;;7.43;1.02;;;;;;;26.04;36.05;100259.47;5039811;28;20037;-41
2022/06/10 13:44:31;;;;;;;5.30;1.02;;;;;;;26.12;36.54;100262.47;5044754;28;20557;-39
2022/06/10 13:46:58;;;;;;;3.90;0.95;;;;;;;26.13;36.42;100264.16;5042400;28;20496;-40
2022/06/10 13:49:46;;;;;;;2.75;0.70;;;;;;;26.11;36.65;100271.38;5040320;28;20572;-40
2022/06/10 13:52:33;;;;;;;5.25;1.20;;;;;;;26.21;36.82;100270.78;5041531;28;20047;-44
2022/06/10 13:58:01;;;;;;;5.32;2.05;;;;;;;26.33;37.21;100262.03;5043646;28;20405;-41
2022/06/10 14:00:32;;;;;;;4.93;2.42;;;;;;;26.36;36.08;100269.81;4985215;28;20049;-41
2022/06/10 14:03:02;;;;;;;8.18;3.22;;;;;;;26.30;36.56;100268.41;4999364;28;20050;-44
2022/06/10 14:05:31;;;;;;;6.82;2.83;;;;;;;26.31;37.39;100271.94;4983800;28;20054;-48
2022/06/10 14:08:00;;;;;;;5.50;2.67;;;;;;;26.29;37.48;100272.03;4982851;28;20050;-40
2022/06/10 14:10:31;;;;;;;7.18;2.53;;;;;;;26.35;37.43;100264.59;4985807;28;20475;-43
2022/06/10 14:15:37;;;;;;;7.13;1.40;;;;;;;26.42;37.99;100264.09;5055295;27;20866;-42
2022/06/10 14:18:21;;;;;;;4.80;1.02;;;;;;;26.39;37.36;100263.44;5021158;28;20103;-40
2022/06/10 14:21:05;;;;;;;6.07;1.40;;;;;;;26.34;37.75;100247.81;5022206;28;21369;-41
2022/06/10 14:23:35;;;;;;;7.53;1.30;;;;;;;26.37;37.58;100265.34;5024603;28;20038;-44
2022/06/10 14:26:23;;;;;;;5.38;1.13;;;;;;;26.38;38.13;100256.44;5021344;28;20046;-41
2022/06/10 14:28:51;;;;;;;5.90;0.98;;;;;;;26.55;38.16;100252.66;5021333;28;20137;-39
2022/06/10 14:34:01;;;;;;;5.03;1.33;;;;;;;26.77;37.79;100251.19;5069191;27;20389;-41
2022/06/10 14:36:31;;;;;;;5.60;1.23;;;;;;;26.83;37.81;100253.44;5041686;28;20038;-41
2022/06/10 14:39:14;;;;;;;5.38;1.50;;;;;;;26.89;37.39;100244.19;5043611;28;20049;-40
2022/06/10 14:47:22;;;;;;;6.85;1.02;;;;;;;27.01;37.24;100237.19;5013149;28;20414;-42
2022/06/10 14:50:08;;;;;;;7.88;1.55;;;;;;;27.02;37.01;100244.22;5004644;28;20042;-40
2022/06/10 14:52:52;;;;;;;5.47;1.02;;;;;;;27.04;37.15;100234.31;5015468;28;20062;-42
2022/06/10 14:55:23;;;;;;;4.00;0.93;;;;;;;27.12;37.34;100239.97;4998079;28;20078;-40
2022/06/10 14:57:53;;;;;;;4.28;1.30;;;;;;;27.11;36.63;100230.28;5003023;28;20046;-44
2022/06/10 15:00:22;;;;;;;4.60;2.03;;;;;;;27.09;36.09;100213.63;5003870;28;20545;-43
2022/06/10 15:02:49;;;;;;;6.80;0.93;;;;;;;26.99;36.87;100225.84;5004898;28;20520;-44
2022/06/10 15:08:05;;;;;;;4.57;1.60;;;;;;;27.06;36.75;100221.78;5001357;28;20046;-45
2022/06/10 15:10:37;;;;;;;9.02;1.73;;;;;;;27.05;36.18;100222.75;5002405;28;20132;-42
2022/06/10 15:13:10;;;;;;;8.05;1.70;;;;;;;27.06;36.93;100219.13;5013426;28;20049;-41
2022/06/10 15:15:37;;;;;;;5.85;1.10;;;;;;;27.10;37.17;100210.00;5015729;28;20530;-42
2022/06/10 15:18:04;;;;;;;6.57;1.55;;;;;;;27.16;36.96;100209.56;4999151;28;20046;-41
2022/06/10 15:20:31;;;;;;;6.30;1.90;;;;;;;27.12;36.43;100201.91;5004401;28;20046;-40
2022/06/10 15:22:58;;;;;;;9.10;1.23;;;;;;;27.04;37.24;100205.97;5002942;28;20054;-42
2022/06/10 15:25:28;;;;;;;6.10;1.58;;;;;;;27.11;36.86;100201.06;5001460;28;20046;-42
2022/06/10 15:27:55;;;;;;;4.53;1.13;;;;;;;27.25;37.54;100209.88;5000226;28;20054;-41
2022/06/10 15:30:27;;;;;;;6.75;1.27;;;;;;;27.32;37.33;100209.31;5003881;28;20054;-43